createdAt,value
2022-11-23T00:03:06.086Z,0.80
2022-11-23T00:08:09.616Z,0.50
2022-11-23T00:13:13.149Z,0.70
2022-11-23T00:18:18.684Z,0.47
2022-11-23T00:23:22.201Z,0.50
2022-11-23T00:28:25.782Z,0.50
2022-11-23T00:33:30.728Z,0.50
2022-11-23T00:38:34.682Z,0.53
2022-11-23T00:43:38.281Z,0.80
2022-11-23T00:48:44.510Z,0.77
2022-11-23T00:53:48.169Z,0.60
2022-11-23T00:58:52.605Z,0.30
2022-11-23T01:03:59.573Z,0.40
2022-11-23T01:09:09.234Z,0.57
2022-11-23T01:14:13.327Z,0.60
2022-11-23T01:19:20.842Z,0.37
2022-11-23T01:24:26.148Z,0.30
2022-11-23T01:29:29.934Z,0.40
2022-11-23T01:34:38.837Z,0.50
2022-11-23T01:39:42.393Z,0.43
2022-11-23T01:44:45.947Z,0.30
2022-11-23T01:49:53.590Z,0.60
2022-11-23T01:55:03.902Z,0.53
2022-11-23T02:00:13.393Z,0.50
2022-11-23T02:05:20.654Z,0.60
2022-11-23T02:10:24.550Z,0.80
2022-11-23T02:15:28.708Z,0.60
2022-11-23T02:20:33.826Z,0.60
2022-11-23T02:25:44.651Z,0.33
2022-11-23T02:30:52.273Z,0.50
2022-11-23T02:36:02.799Z,0.67
2022-11-23T02:41:06.702Z,0.60
2022-11-23T02:46:13.280Z,0.60
2022-11-23T02:51:16.861Z,0.80
2022-11-23T02:56:20.453Z,0.60
2022-11-23T03:01:26.402Z,0.77
2022-11-23T03:06:29.968Z,1.00
2022-11-23T03:11:34.196Z,0.70
2022-11-23T03:16:40.672Z,0.70
2022-11-23T03:21:44.746Z,0.37
2022-11-23T03:26:48.734Z,0.53
2022-11-23T03:31:57.708Z,0.73
2022-11-23T03:37:01.690Z,0.60
2022-11-23T03:42:05.897Z,0.90
2022-11-23T03:47:12.912Z,0.70
2022-11-23T03:52:16.439Z,1.00
2022-11-23T03:57:21.458Z,0.83
2022-11-23T04:02:26.903Z,0.50
2022-11-23T04:07:41.105Z,0.70
2022-11-23T04:12:45.408Z,1.00
2022-11-23T04:17:52.693Z,0.77
2022-11-23T04:22:56.384Z,0.80
2022-11-23T04:28:01.714Z,1.00
2022-11-23T04:33:07.906Z,1.07
2022-11-23T04:38:11.575Z,0.60
2022-11-23T04:43:15.190Z,0.90
2022-11-23T04:48:21.535Z,0.90
2022-11-23T04:53:25.255Z,0.70
2022-11-23T04:58:30.273Z,0.70
2022-11-23T05:03:39.659Z,1.33
2022-11-23T05:08:45.721Z,0.60
2022-11-23T05:14:15.341Z,0.60
2022-11-23T05:19:20.349Z,0.90
2022-11-23T05:24:24.038Z,0.83
2022-11-23T05:29:40.654Z,0.67
2022-11-23T05:34:46.148Z,0.80
2022-11-23T05:39:53.254Z,0.87
2022-11-23T05:44:58.168Z,0.67
2022-11-23T05:50:12.441Z,1.00
2022-11-23T05:55:20.851Z,0.83
2022-11-23T06:00:24.715Z,1.00
2022-11-23T06:05:37.202Z,1.60
2022-11-23T06:10:40.802Z,1.10
2022-11-23T06:15:44.637Z,0.90
2022-11-23T06:20:50.926Z,1.17
2022-11-23T06:25:54.528Z,0.80
2022-11-23T06:31:03.874Z,1.33
2022-11-23T06:36:11.644Z,1.00
2022-11-23T06:41:21.956Z,1.13
2022-11-23T06:46:25.491Z,1.40
2022-11-23T06:51:30.600Z,1.40
2022-11-23T06:56:34.864Z,1.27
2022-11-23T07:01:39.656Z,1.20
2022-11-23T07:06:48.144Z,1.57
2022-11-23T07:12:04.405Z,1.30
2022-11-23T07:17:08.056Z,1.30
2022-11-23T07:22:14.664Z,1.33
2022-11-23T07:27:18.592Z,1.30
2022-11-23T07:32:22.373Z,0.80
2022-11-23T07:37:27.868Z,1.40
2022-11-23T07:42:35.500Z,1.47
2022-11-23T07:47:40.459Z,1.83
2022-11-23T07:52:45.324Z,1.00
2022-11-23T07:57:48.879Z,0.90
2022-11-23T08:03:25.648Z,1.00
2022-11-23T08:08:17.726Z,1.77
2022-11-23T08:13:21.271Z,1.10
2022-11-23T08:18:25.020Z,1.10
2022-11-23T08:23:30.215Z,1.07
2022-11-23T08:28:33.904Z,1.50
2022-11-23T08:33:37.506Z,1.10
2022-11-23T08:38:42.572Z,1.30
2022-11-23T08:43:46.113Z,2.10
2022-11-23T08:48:49.646Z,1.70
2022-11-23T08:53:54.576Z,1.17
2022-11-23T08:58:58.088Z,1.27
2022-11-23T09:04:01.992Z,1.10
2022-11-23T09:09:06.914Z,1.60
2022-11-23T09:14:10.413Z,1.23
2022-11-23T09:19:15.235Z,1.63
2022-11-23T09:24:20.152Z,1.53
2022-11-23T09:29:25.391Z,1.40
2022-11-23T09:34:28.954Z,1.37
2022-11-23T09:39:33.891Z,1.40
2022-11-23T09:44:55.713Z,1.23
2022-11-23T09:50:09.127Z,1.30
2022-11-23T09:55:18.499Z,1.13
2022-11-23T10:00:23.962Z,1.30
2022-11-23T10:05:32.699Z,1.17
2022-11-23T10:10:44.662Z,1.63
2022-11-23T10:16:02.379Z,1.83
2022-11-23T10:21:15.699Z,1.87
2022-11-23T10:26:22.364Z,1.43
2022-11-23T10:31:27.020Z,1.67
2022-11-23T10:36:30.560Z,1.60
2022-11-23T10:41:35.547Z,1.60
2022-11-23T10:46:41.136Z,1.10
2022-11-23T10:51:55.234Z,1.03
2022-11-23T10:57:02.949Z,1.40
2022-11-23T11:02:19.060Z,1.40
2022-11-23T11:07:29.435Z,1.40
2022-11-23T11:12:35.752Z,1.30
2022-11-23T11:17:39.940Z,1.07
2022-11-23T11:22:47.708Z,1.30
2022-11-23T11:27:54.425Z,1.30
2022-11-23T11:33:05.923Z,1.00
2022-11-23T11:38:16.233Z,1.30
2022-11-23T11:43:32.316Z,1.07
2022-11-23T11:48:43.981Z,1.00
2022-11-23T11:53:56.052Z,1.50
2022-11-23T11:59:10.640Z,0.90
2022-11-23T12:04:19.982Z,0.87
2022-11-23T12:09:31.430Z,1.60
2022-11-23T12:14:37.768Z,0.93
2022-11-23T12:19:49.991Z,1.27
2022-11-23T12:25:17.416Z,1.33
2022-11-23T12:30:31.760Z,1.00
2022-11-23T12:35:49.405Z,1.13
2022-11-23T12:41:02.707Z,1.10
2022-11-23T12:46:14.619Z,1.57
2022-11-23T12:51:26.428Z,1.47
2022-11-23T12:56:52.236Z,1.37
2022-11-23T13:02:02.392Z,1.40
2022-11-23T13:07:35.441Z,1.37
2022-11-23T13:13:01.167Z,1.27
2022-11-23T13:18:14.638Z,1.70
2022-11-23T13:23:21.570Z,1.23
2022-11-23T13:28:30.319Z,1.30
2022-11-23T13:33:39.610Z,1.40
2022-11-23T13:38:45.953Z,1.40
2022-11-23T13:43:51.073Z,0.90
2022-11-23T13:48:57.789Z,1.20
2022-11-23T13:54:03.441Z,1.00
2022-11-23T13:59:30.357Z,0.80
2022-11-23T14:04:37.108Z,0.93
2022-11-23T14:09:46.974Z,1.03
2022-11-23T14:15:01.880Z,1.00
2022-11-23T14:20:28.708Z,1.50
2022-11-23T14:25:50.061Z,0.93
2022-11-23T14:31:07.359Z,1.00
2022-11-23T14:36:24.567Z,0.80
2022-11-23T14:41:31.773Z,1.10
2022-11-23T14:46:36.533Z,1.00
2022-11-23T14:51:45.161Z,0.93
2022-11-23T14:56:50.578Z,0.83
2022-11-23T15:01:57.840Z,1.10
2022-11-23T15:07:07.703Z,0.83
2022-11-23T15:12:22.663Z,0.70
2022-11-23T15:17:27.090Z,0.90
2022-11-23T15:22:33.988Z,1.00
2022-11-23T15:27:41.001Z,1.17
2022-11-23T15:32:44.640Z,0.80
2022-11-23T15:37:51.139Z,0.60
2022-11-23T15:42:54.790Z,0.60
2022-11-23T15:48:01.187Z,1.00
2022-11-23T15:53:07.757Z,0.63
2022-11-23T15:58:16.355Z,0.77
2022-11-23T16:03:31.269Z,0.80
2022-11-23T16:08:37.526Z,0.90
2022-11-23T16:13:41.351Z,0.60
2022-11-23T16:18:47.594Z,0.60
2022-11-23T16:23:55.344Z,0.63
2022-11-23T16:29:00.521Z,0.87
2022-11-23T16:34:04.137Z,0.80
2022-11-23T16:39:09.089Z,0.77
2022-11-23T16:44:12.591Z,0.80
2022-11-23T16:49:18.802Z,0.63
2022-11-23T16:54:25.395Z,0.50
2022-11-23T16:59:36.551Z,0.70
2022-11-23T17:04:40.224Z,0.60
2022-11-23T17:09:45.216Z,0.80
2022-11-23T17:14:50.268Z,4.07
2022-11-23T17:19:53.802Z,4.73
2022-11-23T17:24:58.708Z,2.90
2022-11-23T17:30:08.259Z,1.90
2022-11-23T17:35:11.792Z,1.70
2022-11-23T17:40:18.981Z,1.03
2022-11-23T17:45:22.528Z,1.00
2022-11-23T17:50:28.582Z,0.70
2022-11-23T17:55:33.876Z,1.03
2022-11-23T18:00:38.724Z,1.10
2022-11-23T18:05:42.461Z,0.97
2022-11-23T18:10:47.389Z,1.00
2022-11-23T18:15:50.908Z,1.00
2022-11-23T18:20:54.599Z,0.73
2022-11-23T18:26:05.405Z,1.50
2022-11-23T18:31:09.062Z,1.00
2022-11-23T18:36:13.728Z,1.23
2022-11-23T18:41:18.817Z,1.20
2022-11-23T18:46:22.534Z,1.43
2022-11-23T18:51:26.234Z,1.07
2022-11-23T18:56:31.071Z,1.00
2022-11-23T19:01:35.007Z,0.93
2022-11-23T19:06:39.374Z,0.80
2022-11-23T19:11:44.318Z,0.70
2022-11-23T19:16:47.805Z,0.93
2022-11-23T19:21:51.363Z,0.90
2022-11-23T19:26:56.506Z,0.73
2022-11-23T19:32:00.308Z,0.63
2022-11-23T19:37:03.830Z,0.70
2022-11-23T19:42:09.004Z,0.80
2022-11-23T19:47:17.529Z,0.77
2022-11-23T19:52:29.670Z,0.90
2022-11-23T19:57:46.792Z,0.90
2022-11-23T20:02:50.336Z,0.70
2022-11-23T20:07:53.879Z,0.70
2022-11-23T20:12:58.818Z,0.77
2022-11-23T20:18:02.237Z,1.00
2022-11-23T20:23:05.725Z,0.80
2022-11-23T20:28:13.232Z,0.90
2022-11-23T20:33:16.774Z,0.90
2022-11-23T20:38:20.283Z,0.80
2022-11-23T20:43:25.102Z,0.50
2022-11-23T20:48:29.186Z,0.80
2022-11-23T20:53:33.068Z,0.50
2022-11-23T20:58:38.482Z,0.60
2022-11-23T21:03:43.658Z,0.60
2022-11-23T21:08:49.124Z,0.90
2022-11-23T21:14:15.622Z,0.63
2022-11-23T21:19:22.005Z,0.80
2022-11-23T21:24:26.372Z,0.80
2022-11-23T21:29:31.579Z,0.60
2022-11-23T21:34:35.462Z,0.60
2022-11-23T21:39:39.256Z,0.60
2022-11-23T21:44:44.160Z,0.70
2022-11-23T21:49:47.689Z,0.60
2022-11-23T21:54:51.620Z,0.60
2022-11-23T21:59:56.513Z,0.60
2022-11-23T22:05:00.178Z,0.67
2022-11-23T22:10:03.899Z,0.43
2022-11-23T22:15:10.527Z,0.60
2022-11-23T22:20:14.293Z,0.50
2022-11-23T22:25:18.032Z,0.70
2022-11-23T22:30:23.437Z,0.43
2022-11-23T22:35:27.075Z,0.70
2022-11-23T22:40:34.142Z,0.60
2022-11-23T22:45:39.423Z,0.70
2022-11-23T22:50:43.842Z,0.60
2022-11-23T22:55:47.495Z,0.53
2022-11-23T23:00:52.707Z,0.93
2022-11-23T23:05:57.123Z,0.70
2022-11-23T23:11:04.747Z,0.70
2022-11-23T23:16:13.578Z,0.60
2022-11-23T23:21:19.491Z,0.50
2022-11-23T23:26:24.993Z,0.53
2022-11-23T23:31:30.883Z,0.53
2022-11-23T23:36:37.177Z,0.70
2022-11-23T23:41:40.855Z,0.53
2022-11-23T23:46:45.895Z,0.83
2022-11-23T23:51:51.694Z,0.80
2022-11-23T23:56:55.581Z,0.63
